createdAt,value
2019-02-10T00:00:10.306Z,36.93
2019-02-10T00:02:43.678Z,38.20
2019-02-10T00:05:14.188Z,35.97
2019-02-10T00:07:45.347Z,35.23
2019-02-10T00:10:20.264Z,36.70
2019-02-10T00:13:24.725Z,38.67
2019-02-10T00:15:56.525Z,35.57
2019-02-10T00:18:29.539Z,34.57
2019-02-10T00:21:02.296Z,35.10
2019-02-10T00:23:34.178Z,35.00
2019-02-10T00:26:06.304Z,37.10
2019-02-10T00:28:36.923Z,37.10
2019-02-10T00:31:07.387Z,36.23
2019-02-10T00:33:37.918Z,36.23
2019-02-10T00:36:08.702Z,34.57
2019-02-10T00:38:39.192Z,37.43
2019-02-10T00:41:11.249Z,35.20
2019-02-10T00:43:41.772Z,36.13
2019-02-10T00:46:16.021Z,34.80
2019-02-10T00:48:47.817Z,36.63
2019-02-10T00:51:20.110Z,35.63
2019-02-10T00:53:51.322Z,34.07
2019-02-10T00:56:22.147Z,34.63
2019-02-10T00:58:52.600Z,35.97
2019-02-10T01:01:25.688Z,33.53
2019-02-10T01:03:56.206Z,34.17
2019-02-10T01:06:31.286Z,29.17
2019-02-10T01:09:01.753Z,33.83
2019-02-10T01:11:35.488Z,31.53
2019-02-10T01:14:06.289Z,33.07
2019-02-10T01:16:37.215Z,33.47
2019-02-10T01:19:12.800Z,33.70
2019-02-10T01:21:46.013Z,31.33
2019-02-10T01:24:16.413Z,32.00
2019-02-10T01:26:46.786Z,31.50
2019-02-10T01:29:19.379Z,32.03
2019-02-10T01:31:49.712Z,32.93
2019-02-10T01:34:21.520Z,30.13
2019-02-10T01:36:54.461Z,31.47
2019-02-10T01:39:34.635Z,30.93
2019-02-10T01:42:07.696Z,29.97
2019-02-10T01:44:38.087Z,30.73
2019-02-10T01:47:08.605Z,27.90
2019-02-10T01:49:38.930Z,28.73
2019-02-10T01:52:09.335Z,28.13
2019-02-10T01:54:39.614Z,30.10
2019-02-10T01:57:10.022Z,28.43
2019-02-10T01:59:42.594Z,28.20
2019-02-10T02:02:13.061Z,28.60
2019-02-10T02:04:43.515Z,28.23
2019-02-10T02:07:13.942Z,29.13
2019-02-10T02:09:44.370Z,25.87
2019-02-10T02:12:14.703Z,25.80
2019-02-10T02:14:47.273Z,26.60
2019-02-10T02:17:17.738Z,26.20
2019-02-10T02:19:48.031Z,26.90
2019-02-10T02:22:18.348Z,27.57
2019-02-10T02:24:50.182Z,26.70
2019-02-10T02:27:20.583Z,27.10
2019-02-10T02:29:50.902Z,30.10
2019-02-10T02:32:21.315Z,32.60
2019-02-10T02:34:51.674Z,30.90
2019-02-10T02:37:22.033Z,31.53
2019-02-10T02:39:52.303Z,31.83
2019-02-10T02:42:22.627Z,33.43
2019-02-10T02:44:52.951Z,31.63
2019-02-10T02:47:23.325Z,31.20
2019-02-10T02:49:53.607Z,32.90
2019-02-10T02:52:24.121Z,33.23
2019-02-10T02:54:54.384Z,31.83
2019-02-10T02:57:24.746Z,30.77
2019-02-10T02:59:55.075Z,28.90
2019-02-10T03:02:25.389Z,30.50
2019-02-10T03:04:55.757Z,33.60
2019-02-10T03:07:26.075Z,28.13
2019-02-10T03:09:59.926Z,30.77
2019-02-10T03:12:30.223Z,31.63
2019-02-10T03:15:01.533Z,32.83
2019-02-10T03:17:31.950Z,33.17
2019-02-10T03:20:02.346Z,33.13
2019-02-10T03:22:32.749Z,32.07
2019-02-10T03:25:05.091Z,30.73
2019-02-10T03:27:35.350Z,29.70
2019-02-10T03:30:05.688Z,28.47
2019-02-10T03:32:36.072Z,27.00
2019-02-10T03:35:06.691Z,28.67
2019-02-10T03:37:37.030Z,28.87
2019-02-10T03:40:07.348Z,28.80
2019-02-10T03:42:37.678Z,28.43
2019-02-10T03:45:07.967Z,29.33
2019-02-10T03:47:38.302Z,28.10
2019-02-10T03:50:08.654Z,29.47
2019-02-10T03:52:39.066Z,30.63
2019-02-10T03:55:09.298Z,29.80
2019-02-10T03:57:39.610Z,30.13
2019-02-10T04:00:10.040Z,28.97
2019-02-10T04:02:40.404Z,29.93
2019-02-10T04:05:10.732Z,28.73
2019-02-10T04:07:41.104Z,28.13
2019-02-10T04:10:11.529Z,29.07
2019-02-10T04:12:41.853Z,28.47
2019-02-10T04:15:13.219Z,29.77
2019-02-10T04:17:43.634Z,26.50
2019-02-10T04:20:13.949Z,26.97
2019-02-10T04:22:44.306Z,29.03
2019-02-10T04:25:14.682Z,25.03
2019-02-10T04:27:44.992Z,28.83
2019-02-10T04:30:15.299Z,28.00
2019-02-10T04:32:45.620Z,28.07
2019-02-10T04:35:15.985Z,26.73
2019-02-10T04:37:46.604Z,27.23
2019-02-10T04:40:16.998Z,29.03
2019-02-10T04:42:47.304Z,29.00
2019-02-10T04:45:17.659Z,28.53
2019-02-10T04:47:47.953Z,30.40
2019-02-10T04:50:18.241Z,29.27
2019-02-10T04:52:48.600Z,30.00
2019-02-10T04:55:18.904Z,28.30
2019-02-10T04:57:49.223Z,29.27
2019-02-10T05:00:19.587Z,29.93
2019-02-10T05:02:51.047Z,26.40
2019-02-10T05:05:21.314Z,30.27
2019-02-10T05:07:54.566Z,29.87
2019-02-10T05:10:23.594Z,28.17
2019-02-10T05:12:53.982Z,30.57
2019-02-10T05:15:24.283Z,30.77
2019-02-10T05:17:54.588Z,32.03
2019-02-10T05:20:25.073Z,30.27
2019-02-10T05:22:55.437Z,28.77
2019-02-10T05:25:25.847Z,30.53
2019-02-10T05:27:56.131Z,34.13
2019-02-10T05:30:26.478Z,28.73
2019-02-10T05:32:56.805Z,30.13
2019-02-10T05:35:27.106Z,28.37
2019-02-10T05:38:04.028Z,31.63
2019-02-10T05:40:31.545Z,33.27
2019-02-10T05:43:01.954Z,33.80
2019-02-10T05:45:32.262Z,35.63
2019-02-10T05:48:02.651Z,31.70
2019-02-10T05:50:34.042Z,36.23
2019-02-10T05:53:04.376Z,38.43
2019-02-10T05:55:34.747Z,37.20
2019-02-10T05:58:05.381Z,37.33
2019-02-10T06:00:35.735Z,35.73
2019-02-10T06:03:07.630Z,32.90
2019-02-10T06:05:38.084Z,36.03
2019-02-10T06:08:13.389Z,35.00
2019-02-10T06:10:40.379Z,40.73
2019-02-10T06:13:10.787Z,42.17
2019-02-10T06:15:41.205Z,43.40
2019-02-10T06:18:13.361Z,31.70
2019-02-10T06:20:43.653Z,41.30
2019-02-10T06:23:14.099Z,42.77
2019-02-10T06:25:44.497Z,42.00
2019-02-10T06:28:15.011Z,41.80
2019-02-10T06:30:45.384Z,40.67
2019-02-10T06:33:15.729Z,39.90
2019-02-10T06:35:46.212Z,40.57
2019-02-10T06:38:22.306Z,36.07
2019-02-10T06:40:48.754Z,31.17
2019-02-10T06:43:19.077Z,32.47
2019-02-10T06:45:49.340Z,34.93
2019-02-10T06:48:19.597Z,35.80
2019-02-10T06:50:49.907Z,35.70
2019-02-10T06:53:20.193Z,32.17
2019-02-10T06:55:50.517Z,32.67
2019-02-10T06:58:20.811Z,36.17
2019-02-10T07:01:15.401Z,36.03
2019-02-10T07:03:57.834Z,38.20
2019-02-10T07:06:28.214Z,36.93
2019-02-10T07:08:58.559Z,35.33
2019-02-10T07:11:28.961Z,38.37
2019-02-10T07:14:01.104Z,37.93
2019-02-10T07:16:50.248Z,38.93
2019-02-10T07:20:14.065Z,39.03
2019-02-10T07:23:25.873Z,37.20
2019-02-10T07:25:57.880Z,36.10
2019-02-10T07:29:13.164Z,35.53
2019-02-10T07:31:56.879Z,32.60
2019-02-10T07:35:06.321Z,34.33
2019-02-10T07:38:17.767Z,32.60
2019-02-10T07:41:59.658Z,32.97
2019-02-10T07:45:03.835Z,33.30
2019-02-10T07:48:24.399Z,28.43
2019-02-10T07:51:35.864Z,31.37
2019-02-10T07:54:42.242Z,30.97
2019-02-10T07:58:02.509Z,31.23
2019-02-10T08:00:59.626Z,29.30
2019-02-10T08:03:49.409Z,29.00
2019-02-10T08:06:51.231Z,32.87
2019-02-10T08:09:48.952Z,29.90
2019-02-10T08:13:13.061Z,29.03
2019-02-10T08:16:15.901Z,30.70
2019-02-10T08:19:09.316Z,27.70
2019-02-10T08:22:51.317Z,28.37
2019-02-10T08:25:50.053Z,27.97
2019-02-10T08:28:39.512Z,28.07
2019-02-10T08:31:30.800Z,26.03
2019-02-10T08:35:03.655Z,26.27
2019-02-10T08:38:07.258Z,28.80
2019-02-10T08:41:07.838Z,32.23
2019-02-10T08:43:52.834Z,30.73
2019-02-10T08:46:53.226Z,25.73
2019-02-10T08:49:57.126Z,30.97
2019-02-10T08:52:56.296Z,32.30
2019-02-10T08:55:27.244Z,31.63
2019-02-10T08:57:58.071Z,30.47
2019-02-10T09:00:28.909Z,31.87
2019-02-10T09:02:59.346Z,32.50
2019-02-10T09:05:29.749Z,33.43
2019-02-10T09:08:00.426Z,34.17
2019-02-10T09:10:30.872Z,35.20
2019-02-10T09:13:01.338Z,33.87
2019-02-10T09:15:32.287Z,29.73
2019-02-10T09:18:02.575Z,31.77
2019-02-10T09:20:33.889Z,28.63
2019-02-10T09:23:05.825Z,30.77
2019-02-10T09:25:36.154Z,30.40
2019-02-10T09:28:07.560Z,29.23
2019-02-10T09:30:38.925Z,30.53
2019-02-10T09:33:11.779Z,29.53
2019-02-10T09:35:41.840Z,31.97
2019-02-10T09:38:12.229Z,30.33
2019-02-10T09:40:51.563Z,28.50
2019-02-10T09:43:21.986Z,25.53
2019-02-10T09:45:54.778Z,27.47
2019-02-10T09:48:25.118Z,28.83
2019-02-10T09:50:55.442Z,26.57
2019-02-10T09:53:25.745Z,26.20
2019-02-10T09:55:55.990Z,25.73
2019-02-10T09:58:26.341Z,26.03
2019-02-10T10:00:56.702Z,27.17
2019-02-10T10:03:27.202Z,28.13
2019-02-10T10:05:57.618Z,29.33
2019-02-10T10:08:29.405Z,28.20
2019-02-10T10:10:59.897Z,27.57
2019-02-10T10:13:30.301Z,27.70
2019-02-10T10:16:00.857Z,28.30
2019-02-10T10:18:31.214Z,33.03
2019-02-10T10:21:01.621Z,28.97
2019-02-10T10:23:33.158Z,30.87
2019-02-10T10:26:03.559Z,28.33
2019-02-10T10:28:34.196Z,28.63
2019-02-10T10:31:04.521Z,26.90
2019-02-10T10:33:34.871Z,26.37
2019-02-10T10:36:05.266Z,27.23
2019-02-10T10:38:37.163Z,27.17
2019-02-10T10:41:07.521Z,27.53
2019-02-10T10:43:38.048Z,29.80
2019-02-10T10:46:08.459Z,29.43
2019-02-10T10:48:38.913Z,30.97
2019-02-10T10:51:10.980Z,31.30
2019-02-10T10:53:41.333Z,30.00
2019-02-10T10:56:11.859Z,26.30
2019-02-10T10:58:42.442Z,29.93
2019-02-10T11:01:12.858Z,27.77
2019-02-10T11:03:43.342Z,28.10
2019-02-10T11:06:13.825Z,23.40
2019-02-10T11:08:44.218Z,28.03
2019-02-10T11:11:14.475Z,28.23
2019-02-10T11:13:44.839Z,22.97
2019-02-10T11:16:16.244Z,24.37
2019-02-10T11:18:46.694Z,23.50
2019-02-10T11:21:17.044Z,23.80
2019-02-10T11:23:47.629Z,21.43
2019-02-10T11:26:18.093Z,20.53
2019-02-10T11:28:48.475Z,22.60
2019-02-10T11:31:18.762Z,26.60
2019-02-10T11:33:49.427Z,26.30
2019-02-10T11:36:19.728Z,25.57
2019-02-10T11:38:51.179Z,20.23
2019-02-10T11:41:21.510Z,16.63
2019-02-10T11:43:51.924Z,21.00
2019-02-10T11:46:22.265Z,23.67
2019-02-10T11:48:52.865Z,24.73
2019-02-10T11:51:23.196Z,24.73
2019-02-10T11:54:02.316Z,26.20
2019-02-10T11:56:32.776Z,22.00
2019-02-10T11:59:03.713Z,25.60
2019-02-10T12:01:34.354Z,22.63
2019-02-10T12:04:05.111Z,23.37
2019-02-10T12:06:35.598Z,24.40
2019-02-10T12:09:07.074Z,25.40
2019-02-10T12:11:37.774Z,26.03
2019-02-10T12:14:08.203Z,27.43
2019-02-10T12:16:38.620Z,23.83
2019-02-10T12:19:09.062Z,23.73
2019-02-10T12:21:39.480Z,25.03
2019-02-10T12:24:09.748Z,26.00
2019-02-10T12:26:40.161Z,25.97
2019-02-10T12:29:10.590Z,24.07
2019-02-10T12:31:41.010Z,25.67
2019-02-10T12:34:11.330Z,25.33
2019-02-10T12:36:41.662Z,24.93
2019-02-10T12:39:12.140Z,25.80
2019-02-10T12:41:42.624Z,28.20
2019-02-10T12:44:14.662Z,26.73
2019-02-10T12:46:45.092Z,30.80
2019-02-10T12:49:15.374Z,29.03
2019-02-10T12:51:45.686Z,31.17
2019-02-10T12:54:16.012Z,22.17
2019-02-10T12:56:46.392Z,23.80
2019-02-10T12:59:16.722Z,31.97
2019-02-10T13:01:46.994Z,33.17
2019-02-10T13:04:17.430Z,33.00
2019-02-10T13:06:47.841Z,28.03
2019-02-10T13:09:18.212Z,31.87
2019-02-10T13:11:48.696Z,27.33
2019-02-10T13:14:18.970Z,27.83
2019-02-10T13:16:49.310Z,32.13
2019-02-10T13:19:19.760Z,28.63
2019-02-10T13:21:50.146Z,33.00
2019-02-10T13:24:20.579Z,30.27
2019-02-10T13:26:50.875Z,25.40
2019-02-10T13:29:21.201Z,32.73
2019-02-10T13:31:51.781Z,33.07
2019-02-10T13:34:22.312Z,34.20
2019-02-10T13:36:52.706Z,21.67
2019-02-10T13:39:23.090Z,26.03
2019-02-10T13:41:51.880Z,29.83
2019-02-10T13:44:22.533Z,31.40
2019-02-10T13:46:53.047Z,32.30
2019-02-10T13:49:23.410Z,31.20
2019-02-10T13:51:53.814Z,28.20
2019-02-10T13:54:24.376Z,34.57
2019-02-10T13:56:54.702Z,33.53
2019-02-10T13:59:25.115Z,33.13
2019-02-10T14:01:55.461Z,35.80
2019-02-10T14:04:25.908Z,33.87
2019-02-10T14:06:56.317Z,35.63
2019-02-10T14:09:26.549Z,31.17
2019-02-10T14:11:58.802Z,33.77
2019-02-10T14:14:29.226Z,33.97
2019-02-10T14:17:01.830Z,34.60
2019-02-10T14:19:32.132Z,30.07
2019-02-10T14:22:02.563Z,29.57
2019-02-10T14:24:32.972Z,33.37
2019-02-10T14:27:03.309Z,33.30
2019-02-10T14:29:33.748Z,33.07
2019-02-10T14:32:04.112Z,32.47
2019-02-10T14:34:34.494Z,30.77
2019-02-10T14:37:04.958Z,29.77
2019-02-10T14:39:35.334Z,33.43
2019-02-10T14:42:05.679Z,34.97
2019-02-10T14:44:36.161Z,31.97
2019-02-10T14:47:06.548Z,31.07
2019-02-10T14:49:36.994Z,36.20
2019-02-10T14:52:07.312Z,32.90
2019-02-10T14:54:37.837Z,39.03
2019-02-10T14:57:08.226Z,37.27
2019-02-10T14:59:38.553Z,35.73
2019-02-10T15:02:08.880Z,39.43
2019-02-10T15:04:39.188Z,40.70
2019-02-10T15:07:11.072Z,33.57
2019-02-10T15:09:41.508Z,33.90
2019-02-10T15:12:12.022Z,38.40
2019-02-10T15:14:42.542Z,37.90
2019-02-10T15:17:13.095Z,34.50
2019-02-10T15:19:43.518Z,35.67
2019-02-10T15:22:13.965Z,29.10
2019-02-10T15:24:44.381Z,26.20
2019-02-10T15:27:14.864Z,34.80
2019-02-10T15:29:45.257Z,33.17
2019-02-10T15:32:16.853Z,36.57
2019-02-10T15:34:47.621Z,34.73
2019-02-10T15:37:20.200Z,34.43
2019-02-10T15:39:50.569Z,33.27
2019-02-10T15:42:20.942Z,32.50
2019-02-10T15:44:51.316Z,35.97
2019-02-10T15:47:21.616Z,35.67
2019-02-10T15:49:52.091Z,36.47
2019-02-10T15:52:22.445Z,35.97
2019-02-10T15:54:52.924Z,35.43
2019-02-10T15:57:23.239Z,27.87
2019-02-10T15:59:53.687Z,30.80
2019-02-10T16:02:24.040Z,31.83
2019-02-10T16:04:54.604Z,31.53
2019-02-10T16:07:24.963Z,34.07
2019-02-10T16:09:55.359Z,31.57
2019-02-10T16:12:25.723Z,36.33
2019-02-10T16:14:57.203Z,25.60
2019-02-10T16:17:27.635Z,34.57
2019-02-10T16:19:58.161Z,28.63
2019-02-10T16:22:29.025Z,35.83
2019-02-10T16:24:59.466Z,29.80
2019-02-10T16:27:30.048Z,26.03
2019-02-10T16:30:02.811Z,31.67
2019-02-10T16:32:33.346Z,30.10
2019-02-10T16:35:05.509Z,31.83
2019-02-10T16:37:35.975Z,24.30
2019-02-10T16:40:07.535Z,28.83
2019-02-10T16:42:39.427Z,28.27
2019-02-10T16:45:10.426Z,25.90
2019-02-10T16:47:40.885Z,26.17
2019-02-10T16:50:12.111Z,24.50
2019-02-10T16:52:43.545Z,25.50
2019-02-10T16:55:14.561Z,28.87
2019-02-10T16:57:45.019Z,23.93
2019-02-10T17:00:15.471Z,29.10
2019-02-10T17:02:46.104Z,20.27
2019-02-10T17:05:16.544Z,24.13
2019-02-10T17:07:46.906Z,28.87
2019-02-10T17:10:17.284Z,28.77
2019-02-10T17:12:47.685Z,30.10
2019-02-10T17:15:18.069Z,29.40
2019-02-10T17:17:48.465Z,27.13
2019-02-10T17:20:18.875Z,25.33
2019-02-10T17:22:50.229Z,22.60
2019-02-10T17:25:20.793Z,25.43
2019-02-10T17:27:51.316Z,28.20
2019-02-10T17:30:21.844Z,28.03
2019-02-10T17:32:52.274Z,27.93
2019-02-10T17:35:22.758Z,27.83
2019-02-10T17:37:53.173Z,29.90
2019-02-10T17:40:28.142Z,26.20
2019-02-10T17:42:58.522Z,25.33
2019-02-10T17:45:29.029Z,27.80
2019-02-10T17:47:59.457Z,27.17
2019-02-10T17:50:29.824Z,27.30
2019-02-10T17:53:00.360Z,22.50
2019-02-10T17:55:30.882Z,29.27
2019-02-10T17:58:01.335Z,29.30
2019-02-10T18:00:35.696Z,27.53
2019-02-10T18:03:06.354Z,22.10
2019-02-10T18:05:36.743Z,23.13
2019-02-10T18:08:09.153Z,26.17
2019-02-10T18:10:39.514Z,26.10
2019-02-10T18:13:11.058Z,27.57
2019-02-10T18:16:13.528Z,22.73
2019-02-10T18:18:59.276Z,29.60
2019-02-10T18:22:03.781Z,29.00
2019-02-10T18:24:43.754Z,28.97
2019-02-10T18:27:39.039Z,29.40
2019-02-10T18:30:30.197Z,28.73
2019-02-10T18:33:19.654Z,28.57
2019-02-10T18:36:09.899Z,28.30
2019-02-10T18:39:05.724Z,26.80
2019-02-10T18:41:54.595Z,27.40
2019-02-10T18:44:41.196Z,27.53
2019-02-10T18:47:34.354Z,28.03
2019-02-10T18:50:35.813Z,29.77
2019-02-10T18:53:16.714Z,28.83
2019-02-10T18:56:14.857Z,27.27
2019-02-10T18:58:55.005Z,31.80
2019-02-10T19:01:37.239Z,30.87
2019-02-10T19:04:25.410Z,35.03
2019-02-10T19:07:13.299Z,35.80
2019-02-10T19:10:00.453Z,30.10
2019-02-10T19:12:44.253Z,33.57
2019-02-10T19:15:22.978Z,32.67
2019-02-10T19:18:15.231Z,35.33
2019-02-10T19:21:19.836Z,33.97
2019-02-10T19:24:01.668Z,31.50
2019-02-10T19:26:59.887Z,34.13
2019-02-10T19:29:52.025Z,35.73
2019-02-10T19:32:41.335Z,34.67
2019-02-10T19:35:39.759Z,31.53
2019-02-10T19:38:34.801Z,36.43
2019-02-10T19:41:23.413Z,38.23
2019-02-10T19:44:11.511Z,37.27
2019-02-10T19:47:02.631Z,36.67
2019-02-10T19:49:51.990Z,38.37
2019-02-10T19:52:39.816Z,36.77
2019-02-10T19:55:19.464Z,39.63
2019-02-10T19:58:13.743Z,39.30
2019-02-10T20:01:09.179Z,36.93
2019-02-10T20:04:01.546Z,35.97
2019-02-10T20:06:49.864Z,37.63
2019-02-10T20:09:48.520Z,36.93
2019-02-10T20:12:36.403Z,36.57
2019-02-10T20:15:17.206Z,31.27
2019-02-10T20:18:05.693Z,36.73
2019-02-10T20:20:48.471Z,33.10
2019-02-10T20:23:37.805Z,32.23
2019-02-10T20:26:45.660Z,32.07
2019-02-10T20:29:37.702Z,35.13
2019-02-10T20:32:39.136Z,33.30
2019-02-10T20:35:23.695Z,32.87
2019-02-10T20:38:11.531Z,33.40
2019-02-10T20:41:00.863Z,35.67
2019-02-10T20:43:50.161Z,28.70
2019-02-10T20:46:29.191Z,34.17
2019-02-10T20:49:18.608Z,35.87
2019-02-10T20:52:06.605Z,33.60
2019-02-10T20:54:57.714Z,33.77
2019-02-10T20:57:59.550Z,36.50
2019-02-10T21:01:01.062Z,29.30
2019-02-10T21:03:58.373Z,34.40
2019-02-10T21:06:43.424Z,38.70
2019-02-10T21:09:31.670Z,37.57
2019-02-10T21:12:20.376Z,35.07
2019-02-10T21:15:07.582Z,35.03
2019-02-10T21:17:57.944Z,35.27
2019-02-10T21:20:47.141Z,36.93
2019-02-10T21:23:44.376Z,39.10
2019-02-10T21:26:33.808Z,38.20
2019-02-10T21:29:19.144Z,36.30
2019-02-10T21:32:11.392Z,38.00
2019-02-10T21:34:50.828Z,39.47
2019-02-10T21:37:39.166Z,41.30
2019-02-10T21:40:39.033Z,38.83
2019-02-10T21:43:21.329Z,36.57
2019-02-10T21:46:09.553Z,37.80
2019-02-10T21:48:49.261Z,36.70
2019-02-10T21:51:19.579Z,34.70
2019-02-10T21:53:49.890Z,36.30
2019-02-10T21:56:20.225Z,33.73
2019-02-10T21:58:50.509Z,38.20
2019-02-10T22:01:20.801Z,33.87
2019-02-10T22:03:51.183Z,31.67
2019-02-10T22:06:21.439Z,32.27
2019-02-10T22:08:52.049Z,33.43
2019-02-10T22:11:22.364Z,31.20
2019-02-10T22:13:52.666Z,29.97
2019-02-10T22:16:23.558Z,31.70
2019-02-10T22:18:53.836Z,29.93
2019-02-10T22:21:24.197Z,22.33
2019-02-10T22:23:54.561Z,29.50
2019-02-10T22:26:24.821Z,28.73
2019-02-10T22:28:55.103Z,28.67
2019-02-10T22:31:26.675Z,24.30
2019-02-10T22:33:57.210Z,26.30
2019-02-10T22:36:27.584Z,22.30
2019-02-10T22:38:58.016Z,23.93
2019-02-10T22:41:28.340Z,25.00
2019-02-10T22:43:58.664Z,24.00
2019-02-10T22:46:29.105Z,22.20
2019-02-10T22:48:59.348Z,21.53
2019-02-10T22:51:29.686Z,21.50
2019-02-10T22:54:00.030Z,20.73
2019-02-10T22:56:30.249Z,22.10
2019-02-10T22:59:00.702Z,23.40
2019-02-10T23:01:32.026Z,20.37
2019-02-10T23:04:02.447Z,21.13
2019-02-10T23:06:32.812Z,20.83
2019-02-10T23:09:05.035Z,21.50
2019-02-10T23:11:36.525Z,21.90
2019-02-10T23:14:06.982Z,22.10
2019-02-10T23:16:37.478Z,21.33
2019-02-10T23:19:08.093Z,20.03
2019-02-10T23:21:38.511Z,20.33
2019-02-10T23:24:09.105Z,20.03
2019-02-10T23:26:39.478Z,20.63
2019-02-10T23:29:09.888Z,19.67
2019-02-10T23:31:40.218Z,16.87
2019-02-10T23:34:10.552Z,17.00
2019-02-10T23:36:41.044Z,17.63
2019-02-10T23:39:11.460Z,18.30
2019-02-10T23:41:41.825Z,18.00
2019-02-10T23:44:12.150Z,16.27
2019-02-10T23:46:42.564Z,16.30
2019-02-10T23:49:12.890Z,14.10
2019-02-10T23:51:43.220Z,16.03
2019-02-10T23:54:13.618Z,14.50
2019-02-10T23:56:47.186Z,14.33
2019-02-10T23:59:15.918Z,13.40
